Time;durP1;ratioP1;P1;durP2;ratioP2;P2;SDS_P1;SDS_P2;PMS_P1;PMS_P2;Temp;Humidity;BMP_temperature;BMP_pressure;BME280_temperature;BME280_humidity;BME280_pressure;Samples;Min_cycle;Max_cycle;Signal;HPM_P1;HPM_P2
2022/01/19 00:02:22;;;;;;;8.88;2.90;;;;;;;-8.63;84.36;99620.25;5012955;28;20111;-64
2022/01/19 00:04:48;;;;;;;10.85;2.10;;;;;;;-8.28;84.51;99671.88;5011919;28;20060;-64
2022/01/19 00:07:14;;;;;;;11.05;2.40;;;;;;;-8.46;83.67;99654.81;5011812;28;20054;-65
2022/01/19 00:09:40;;;;;;;11.93;3.03;;;;;;;-8.42;84.20;99671.34;5013630;28;20501;-62
2022/01/19 00:12:06;;;;;;;7.72;2.03;;;;;;;-8.47;83.68;99647.00;5014665;28;20457;-65
2022/01/19 00:14:32;;;;;;;9.45;2.67;;;;;;;-8.46;83.79;99638.22;5018993;28;20093;-64
2022/01/19 00:16:58;;;;;;;6.97;1.90;;;;;;;-8.34;83.76;99658.91;5001389;28;20121;-65
2022/01/19 00:19:24;;;;;;;7.82;2.22;;;;;;;-8.35;83.74;99660.66;5028500;28;20143;-64
2022/01/19 00:21:49;;;;;;;11.65;2.65;;;;;;;-8.54;84.30;99634.03;5011728;28;20173;-65
2022/01/19 00:24:15;;;;;;;7.03;2.13;;;;;;;-8.37;83.68;99648.50;5011795;28;20144;-64
2022/01/19 00:26:42;;;;;;;13.45;2.60;;;;;;;-8.50;83.91;99635.69;5011351;28;20049;-64
2022/01/19 00:29:08;;;;;;;10.45;2.47;;;;;;;-8.41;83.69;99657.34;5011174;28;20042;-64
2022/01/19 00:31:33;;;;;;;7.72;1.92;;;;;;;-8.39;84.22;99655.56;5012046;28;20056;-65
2022/01/19 00:33:59;;;;;;;13.23;2.33;;;;;;;-8.38;84.11;99657.28;5010996;28;20453;-63
2022/01/19 00:36:26;;;;;;;8.32;2.35;;;;;;;-8.52;83.50;99631.34;5010649;28;20532;-63
2022/01/19 00:38:52;;;;;;;10.82;2.70;;;;;;;-8.48;83.69;99637.41;5012001;28;20081;-64
2022/01/19 00:41:18;;;;;;;9.25;2.17;;;;;;;-8.30;83.73;99671.03;4994483;28;20073;-63
2022/01/19 00:43:44;;;;;;;6.65;2.42;;;;;;;-8.29;84.58;99662.28;4994678;28;20090;-64
2022/01/19 00:46:10;;;;;;;7.07;1.92;;;;;;;-8.32;84.79;99657.13;5010850;28;20111;-63
2022/01/19 00:48:36;;;;;;;6.85;2.10;;;;;;;-8.46;84.63;99628.59;5010883;28;20141;-63
2022/01/19 00:51:03;;;;;;;8.35;2.10;;;;;;;-8.14;84.49;99666.34;4994614;28;20139;-63
2022/01/19 00:53:28;;;;;;;9.25;2.75;;;;;;;-8.21;84.77;99660.34;5027200;28;20076;-68
2022/01/19 00:55:56;;;;;;;7.72;2.03;;;;;;;-8.21;84.65;99659.50;5011690;28;20058;-64
2022/01/19 00:58:22;;;;;;;10.10;2.72;;;;;;;-8.20;84.90;99651.59;5010701;28;20053;-64
2022/01/19 01:00:48;;;;;;;7.53;2.53;;;;;;;-8.36;85.01;99634.50;5011967;28;20069;-64
2022/01/19 01:03:15;;;;;;;12.65;2.42;;;;;;;-8.35;84.82;99630.97;4993790;28;20046;-64
2022/01/19 01:05:41;;;;;;;9.40;2.47;;;;;;;-8.25;85.03;99643.84;5010340;28;20085;-65
2022/01/19 01:08:09;;;;;;;11.25;2.50;;;;;;;-8.27;84.22;99644.75;5010675;28;20482;-64
2022/01/19 01:10:41;;;;;;;9.38;3.17;;;;;;;-8.40;84.63;99632.88;5010154;28;20050;-64
2022/01/19 01:13:24;;;;;;;10.60;2.08;;;;;;;-8.23;84.80;99638.53;4992794;28;20545;-63
2022/01/19 01:16:05;;;;;;;9.25;2.50;;;;;;;-8.28;84.77;99653.53;5010330;28;20060;-62
2022/01/19 01:18:34;;;;;;;11.07;2.63;;;;;;;-8.30;84.86;99645.72;5010450;28;20054;-63
2022/01/19 01:21:02;;;;;;;9.23;2.33;;;;;;;-8.36;85.12;99644.97;5010042;28;20053;-64
2022/01/19 01:23:31;;;;;;;11.68;2.45;;;;;;;-8.45;85.21;99637.34;4993920;28;20050;-64
2022/01/19 01:25:57;;;;;;;6.55;1.95;;;;;;;-8.41;84.76;99639.84;5026412;28;20500;-63
2022/01/19 01:28:24;;;;;;;8.95;2.30;;;;;;;-8.50;85.90;99638.28;5008180;28;20053;-64
2022/01/19 01:30:50;;;;;;;6.93;2.00;;;;;;;-8.58;85.91;99640.22;5030323;28;20495;-64
2022/01/19 01:33:17;;;;;;;9.82;2.80;;;;;;;-8.65;85.55;99638.63;4997055;28;20227;-62
2022/01/19 01:35:43;;;;;;;8.52;2.20;;;;;;;-8.57;85.93;99636.69;4995692;28;20051;-64
2022/01/19 01:38:10;;;;;;;10.63;2.95;;;;;;;-8.83;86.26;99607.56;4977913;28;20048;-65
2022/01/19 01:40:37;;;;;;;8.27;2.65;;;;;;;-8.67;86.24;99642.16;5012894;28;20497;-64
2022/01/19 01:43:05;;;;;;;10.35;2.35;;;;;;;-8.68;86.76;99641.31;5013165;28;20057;-65
2022/01/19 01:45:34;;;;;;;12.23;3.13;;;;;;;-8.68;87.31;99645.69;4995283;28;20163;-63
2022/01/19 01:53:54;;;;;;;9.20;2.97;;;;;;;-8.75;87.26;99647.56;4991771;28;20303;-62
2022/01/19 01:56:21;;;;;;;10.13;3.10;;;;;;;-8.91;87.39;99622.59;4994096;28;20065;-64
2022/01/19 01:58:51;;;;;;;10.55;2.92;;;;;;;-8.95;87.72;99618.31;5023731;28;20046;-65
2022/01/19 02:01:38;;;;;;;11.63;2.80;;;;;;;-8.96;87.02;99621.81;5015137;28;20056;-64
2022/01/19 02:04:09;;;;;;;11.18;3.60;;;;;;;-8.94;87.28;99620.03;5027048;28;20150;-64
2022/01/19 02:09:32;;;;;;;10.93;2.50;;;;;;;-9.00;87.64;99637.56;4980920;28;20115;-64
2022/01/19 02:23:14;;;;;;;7.95;2.25;;;;;;;-9.19;88.43;99646.69;5009449;28;20050;-62
2022/01/19 02:25:43;;;;;;;13.27;2.35;;;;;;;-9.47;88.08;99600.09;5010714;28;20188;-65
2022/01/19 02:41:39;;;;;;;11.27;3.38;;;;;;;-9.65;89.61;99621.34;5008126;28;20578;-65
2022/01/19 02:44:09;;;;;;;9.20;2.60;;;;;;;-9.31;89.56;99683.56;5012794;28;20084;-65
2022/01/19 02:46:53;;;;;;;10.05;2.17;;;;;;;-9.21;89.55;99685.13;5013485;28;20094;-66
2022/01/19 02:49:20;;;;;;;12.57;2.33;;;;;;;-9.18;89.30;99685.03;5015756;28;20091;-65
2022/01/19 02:51:51;;;;;;;13.20;2.60;;;;;;;-9.35;89.34;99634.78;5013076;28;20493;-63
2022/01/19 02:54:20;;;;;;;14.25;2.53;;;;;;;-9.00;88.68;99689.94;5012700;28;20065;-63
2022/01/19 02:56:51;;;;;;;10.32;3.05;;;;;;;-8.90;88.96;99689.78;5012615;28;20049;-65
2022/01/19 02:59:37;;;;;;;8.50;3.10;;;;;;;-8.89;89.02;99687.13;5012144;28;20052;-64
2022/01/19 03:10:17;;;;;;;13.15;4.00;;;;;;;-8.87;88.69;99663.53;5011892;28;20061;-64
2022/01/19 03:12:43;;;;;;;10.15;2.75;;;;;;;-8.77;88.93;99681.66;5028280;28;20119;-64
2022/01/19 03:15:11;;;;;;;10.13;3.20;;;;;;;-8.75;88.82;99681.63;5028154;28;20571;-64
2022/01/19 03:17:37;;;;;;;9.48;3.05;;;;;;;-8.64;88.40;99692.75;4995542;28;20060;-64
2022/01/19 03:20:06;;;;;;;9.43;2.90;;;;;;;-8.74;88.40;99659.75;4997688;28;20037;-64
2022/01/19 03:22:42;;;;;;;11.88;3.10;;;;;;;-8.60;88.22;99662.97;5015555;28;20445;-65
2022/01/19 03:25:12;;;;;;;8.48;2.22;;;;;;;-8.46;87.99;99673.16;5015388;28;20455;-64
2022/01/19 03:27:46;;;;;;;8.18;2.85;;;;;;;-8.48;86.67;99666.22;5016098;28;20151;-65
2022/01/19 03:30:13;;;;;;;8.75;2.95;;;;;;;-8.43;87.33;99672.25;5015353;28;20384;-64
2022/01/19 03:32:40;;;;;;;9.40;2.65;;;;;;;-8.39;86.84;99676.53;5015329;28;20045;-65
2022/01/19 03:35:06;;;;;;;8.50;2.58;;;;;;;-8.36;86.79;99672.03;4998935;28;20077;-63
2022/01/19 03:37:32;;;;;;;9.48;2.80;;;;;;;-8.62;87.20;99635.94;5015520;28;20132;-64
2022/01/19 03:39:58;;;;;;;13.18;3.17;;;;;;;-8.48;87.61;99661.88;5015349;28;20045;-64
2022/01/19 03:42:24;;;;;;;11.88;2.95;;;;;;;-8.54;87.42;99657.59;5031481;28;20052;-65
2022/01/19 03:44:50;;;;;;;8.07;2.60;;;;;;;-8.47;87.05;99667.97;5014841;28;20385;-63
2022/01/19 03:47:17;;;;;;;10.13;2.60;;;;;;;-8.47;87.24;99668.81;4998663;28;20045;-64
2022/01/19 03:49:44;;;;;;;523.65;91.47;;;;;;;-8.60;87.70;99662.97;5015188;28;20041;-65
2022/01/19 03:52:10;;;;;;;87.15;19.15;;;;;;;-8.70;87.66;99660.56;5014839;28;20119;-65
2022/01/19 03:54:42;;;;;;;71.68;16.92;;;;;;;-8.70;87.72;99645.72;4982508;28;20089;-65
2022/01/19 03:57:08;;;;;;;28.67;7.43;;;;;;;-8.49;87.13;99673.22;5030979;28;20064;-65
2022/01/19 03:59:35;;;;;;;14.02;4.18;;;;;;;-8.61;87.40;99676.97;4998809;28;20041;-65
2022/01/19 04:02:02;;;;;;;18.65;4.22;;;;;;;-8.71;87.61;99675.41;5030697;28;20052;-64
2022/01/19 04:04:38;;;;;;;14.45;4.03;;;;;;;-8.92;87.96;99660.13;5031063;28;20357;-65
2022/01/19 04:07:09;;;;;;;14.90;3.33;;;;;;;-9.06;88.44;99658.66;4999276;28;20053;-64
2022/01/19 04:09:43;;;;;;;8.30;2.80;;;;;;;-9.12;88.40;99664.00;4999447;28;20139;-64
2022/01/19 04:12:13;;;;;;;8.88;2.55;;;;;;;-8.87;88.33;99694.97;5031053;28;20128;-65
2022/01/19 04:14:39;;;;;;;9.35;2.30;;;;;;;-9.04;88.25;99688.28;5014415;28;20092;-65
2022/01/19 04:17:08;;;;;;;8.77;2.47;;;;;;;-9.08;88.06;99697.09;5031120;28;20049;-64
2022/01/19 04:19:42;;;;;;;16.60;4.95;;;;;;;-9.21;89.42;99706.06;4998204;28;20056;-65
2022/01/19 04:22:20;;;;;;;14.20;3.30;;;;;;;-9.42;89.55;99675.03;5014302;28;20091;-65
2022/01/19 04:24:48;;;;;;;10.60;2.78;;;;;;;-9.25;89.78;99704.38;5014863;28;20111;-65
2022/01/19 04:29:51;;;;;;;13.48;2.97;;;;;;;-9.54;90.34;99676.97;5014539;28;20049;-64
2022/01/19 04:32:23;;;;;;;8.43;2.88;;;;;;;-9.60;90.80;99678.81;5030460;28;20421;-65
2022/01/19 04:34:50;;;;;;;14.82;2.45;;;;;;;-9.54;91.09;99708.38;4998888;28;20045;-65
2022/01/19 05:01:44;;;;;;;9.70;2.72;;;;;;;-9.58;92.71;99711.94;5000402;28;20451;-65
2022/01/19 05:07:20;;;;;;;10.30;4.35;;;;;;;-9.67;94.40;99712.06;5020775;28;20132;-64
2022/01/19 05:10:04;;;;;;;11.48;3.00;;;;;;;-9.76;95.28;99699.09;4999652;28;20081;-65
2022/01/19 05:15:14;;;;;;;10.27;2.80;;;;;;;-9.98;95.26;99669.81;5016329;28;20052;-65
2022/01/19 05:17:41;;;;;;;8.10;2.75;;;;;;;-9.89;96.01;99689.75;5013762;28;20057;-64
2022/01/19 05:20:08;;;;;;;10.48;3.38;;;;;;;-9.91;96.17;99686.28;5031482;28;20128;-64
2022/01/19 05:22:35;;;;;;;12.25;3.25;;;;;;;-9.96;96.58;99695.06;4981056;28;20049;-64
2022/01/19 05:25:08;;;;;;;14.13;3.75;;;;;;;-9.90;96.45;99688.03;5014708;28;20049;-64
2022/01/19 05:28:10;;;;;;;11.93;3.55;;;;;;;-10.04;96.19;99660.31;4965123;28;20569;-64
2022/01/19 05:30:36;;;;;;;11.45;3.45;;;;;;;-9.93;96.40;99677.59;5033672;28;20060;-64
2022/01/19 05:33:03;;;;;;;11.35;3.35;;;;;;;-10.03;96.30;99662.03;4980687;28;20114;-65
2022/01/19 05:35:30;;;;;;;14.98;3.67;;;;;;;-10.05;96.04;99658.59;4980268;28;20492;-64
2022/01/19 05:38:14;;;;;;;10.38;3.58;;;;;;;-10.13;95.90;99657.84;4998847;28;20223;-64
2022/01/19 05:40:54;;;;;;;9.02;3.63;;;;;;;-10.24;95.55;99642.34;5014776;28;20581;-64
2022/01/19 05:43:22;;;;;;;13.15;4.15;;;;;;;-10.17;95.75;99653.53;4996236;28;20366;-65
2022/01/19 05:45:49;;;;;;;13.80;3.80;;;;;;;-10.27;96.23;99652.00;5013235;28;20041;-64
2022/01/19 05:48:24;;;;;;;14.77;3.95;;;;;;;-10.27;96.25;99662.47;4982911;28;20139;-64
2022/01/19 05:50:53;;;;;;;12.73;4.70;;;;;;;-10.30;96.47;99660.75;4981841;28;20052;-64
2022/01/19 05:53:23;;;;;;;17.02;4.28;;;;;;;-10.31;96.57;99671.19;4981975;28;20453;-64
2022/01/19 05:55:49;;;;;;;14.43;4.47;;;;;;;-10.35;96.53;99664.28;4980120;28;20496;-64
2022/01/19 05:58:15;;;;;;;15.43;4.80;;;;;;;-10.33;96.69;99662.53;4995053;28;20060;-65
2022/01/19 06:00:42;;;;;;;18.98;4.78;;;;;;;-10.36;97.02;99678.25;4995031;28;20460;-64
2022/01/19 06:03:10;;;;;;;15.57;4.85;;;;;;;-10.38;97.30;99674.78;4983947;28;20049;-64
2022/01/19 06:05:55;;;;;;;13.80;4.63;;;;;;;-10.46;96.96;99654.88;5018618;28;20045;-64
2022/01/19 06:09:00;;;;;;;12.20;4.00;;;;;;;-10.35;97.07;99664.28;5004066;28;20600;-64
2022/01/19 06:11:27;;;;;;;10.18;3.70;;;;;;;-10.35;96.23;99649.47;4994229;28;20072;-65
2022/01/19 06:13:53;;;;;;;15.18;4.45;;;;;;;-10.09;95.64;99649.09;5023795;28;20098;-65
2022/01/19 06:16:19;;;;;;;6.88;2.13;;;;;;;-9.85;94.55;99660.03;5017087;28;20468;-65
2022/01/19 06:18:45;;;;;;;13.90;4.28;;;;;;;-9.90;93.71;99656.66;5028674;28;20053;-64
2022/01/19 06:21:13;;;;;;;14.82;5.00;;;;;;;-9.80;93.84;99668.66;5016034;28;20045;-64
2022/01/19 06:23:43;;;;;;;13.75;4.22;;;;;;;-8.02;88.59;99648.53;4995817;28;20049;-64
2022/01/19 06:26:11;;;;;;;13.52;4.53;;;;;;;-6.84;81.10;99642.03;4994897;28;20059;-64
2022/01/19 06:28:38;;;;;;;11.68;4.05;;;;;;;-5.96;75.36;99629.75;5012246;28;20120;-65
2022/01/19 06:31:06;;;;;;;9.15;3.28;;;;;;;-5.15;70.38;99661.31;5010897;28;20460;-65
2022/01/19 06:33:32;;;;;;;12.82;3.92;;;;;;;-4.68;69.42;99656.09;4997463;28;20041;-65
2022/01/19 06:35:58;;;;;;;17.00;4.32;;;;;;;-3.93;66.01;99663.84;5004962;28;20141;-64
2022/01/19 06:38:35;;;;;;;12.10;3.63;;;;;;;-3.77;64.44;99656.16;4968039;28;20068;-65
2022/01/19 06:41:07;;;;;;;11.77;3.63;;;;;;;-3.83;62.94;99622.09;4981770;28;20107;-66
2022/01/19 06:43:36;;;;;;;14.40;3.20;;;;;;;-2.83;62.22;99661.06;4980341;28;20120;-65
2022/01/19 06:46:03;;;;;;;8.60;2.90;;;;;;;-2.33;59.55;99645.56;4996472;28;20041;-65
2022/01/19 06:48:28;;;;;;;10.85;3.28;;;;;;;-2.22;58.78;99659.16;4973653;28;20037;-65
2022/01/19 06:50:56;;;;;;;10.45;2.85;;;;;;;-1.02;56.80;99662.19;4982377;28;20386;-65
2022/01/19 06:53:42;;;;;;;10.90;3.38;;;;;;;-0.62;54.94;99645.97;5000900;28;20674;-65
2022/01/19 06:56:16;;;;;;;11.98;3.92;;;;;;;-0.41;54.58;99654.59;4986902;28;20123;-66
2022/01/19 06:58:42;;;;;;;12.27;3.88;;;;;;;-0.44;53.21;99636.16;4986428;28;20070;-65
2022/01/19 07:01:35;;;;;;;11.68;4.10;;;;;;;0.14;50.95;99657.75;5016932;28;20117;-65
2022/01/19 07:04:10;;;;;;;9.77;3.28;;;;;;;-0.13;50.37;99653.97;4983315;28;20045;-65
2022/01/19 07:06:36;;;;;;;11.50;3.67;;;;;;;0.43;51.32;99636.63;4987360;28;20049;-66
2022/01/19 07:09:14;;;;;;;14.15;3.00;;;;;;;0.26;49.76;99650.03;5003987;28;20054;-65
2022/01/19 07:11:55;;;;;;;11.07;3.88;;;;;;;1.15;48.17;99646.59;4983864;28;20337;-65
2022/01/19 07:14:22;;;;;;;12.27;3.22;;;;;;;1.54;45.70;99647.78;5019575;28;20050;-66
2022/01/19 07:16:50;;;;;;;11.82;4.03;;;;;;;2.32;45.57;99644.66;5001725;28;20051;-66
2022/01/19 07:19:16;;;;;;;10.10;3.53;;;;;;;2.23;45.46;99623.91;4967131;28;20130;-66
2022/01/19 07:21:44;;;;;;;10.30;3.72;;;;;;;2.40;43.90;99631.69;4972817;28;20045;-66
2022/01/19 07:24:12;;;;;;;10.75;3.92;;;;;;;2.69;43.42;99626.25;5016819;28;20056;-67
2022/01/19 07:26:38;;;;;;;10.63;3.72;;;;;;;2.03;44.49;99634.06;4987015;28;20548;-66
2022/01/19 07:29:07;;;;;;;11.60;3.65;;;;;;;0.10;47.74;99640.25;4998916;28;20072;-67
2022/01/19 07:31:33;;;;;;;13.48;4.38;;;;;;;1.99;44.01;99632.53;5002313;28;20045;-67
2022/01/19 07:34:04;;;;;;;13.88;4.63;;;;;;;2.04;44.23;99635.75;4996656;28;20499;-67
2022/01/19 07:36:30;;;;;;;15.18;4.40;;;;;;;2.59;43.93;99628.66;4981700;28;20084;-67
2022/01/19 07:38:56;;;;;;;12.93;4.30;;;;;;;2.32;43.51;99624.19;5002442;28;20122;-67
2022/01/19 07:41:22;;;;;;;15.95;4.25;;;;;;;0.96;45.83;99614.91;4965554;28;20052;-68
2022/01/19 07:43:52;;;;;;;12.90;4.82;;;;;;;2.29;45.17;99612.84;5002197;28;20037;-67
2022/01/19 07:46:36;;;;;;;13.75;5.13;;;;;;;1.95;43.39;99604.38;4987556;28;20042;-67
2022/01/19 07:49:18;;;;;;;13.55;4.70;;;;;;;1.02;45.92;99621.63;5012612;28;20628;-66
2022/01/19 07:51:55;;;;;;;10.35;4.10;;;;;;;2.15;43.80;99609.25;4994566;28;20093;-66
2022/01/19 07:54:25;;;;;;;;;;;;;;;2.33;43.53;99612.53;4964508;28;20080;-66
2022/01/19 07:57:00;;;;;;;12.98;4.18;;;;;;;2.08;42.90;99599.09;4981368;28;19928;-66
2022/01/19 07:59:44;;;;;;;14.85;4.15;;;;;;;2.05;43.95;99600.16;4986789;28;20505;-65
2022/01/19 08:02:13;;;;;;;12.98;3.92;;;;;;;3.46;42.00;99598.69;5001333;28;20100;-66
2022/01/19 08:04:39;;;;;;;13.52;3.92;;;;;;;5.45;37.74;99591.94;4982642;28;20133;-66
2022/01/19 08:07:05;;;;;;;11.88;3.80;;;;;;;5.15;37.23;99584.41;4982301;28;20056;-66
2022/01/19 08:09:31;;;;;;;10.57;3.47;;;;;;;5.19;36.85;99585.03;5004711;28;20045;-69
2022/01/19 08:11:57;;;;;;;11.30;4.22;;;;;;;5.31;36.64;99584.09;5000241;28;20124;-67
2022/01/19 08:14:27;;;;;;;10.25;4.07;;;;;;;3.76;39.26;99584.09;4972485;28;20045;-67
2022/01/19 08:16:57;;;;;;;11.32;3.42;;;;;;;4.29;37.88;99563.31;4988758;28;20152;-67
2022/01/19 08:19:27;;;;;;;10.13;3.10;;;;;;;5.12;39.00;99589.16;5019634;28;20057;-67
2022/01/19 08:21:53;;;;;;;9.75;3.20;;;;;;;4.73;37.86;99583.22;4994370;28;20045;-68
2022/01/19 08:24:20;;;;;;;12.73;4.22;;;;;;;2.84;40.27;99583.34;5019706;28;20111;-67
2022/01/19 08:26:52;;;;;;;12.18;4.00;;;;;;;4.01;39.37;99581.38;4989150;28;20123;-67
2022/01/19 08:29:22;;;;;;;12.57;3.45;;;;;;;2.62;41.07;99567.94;4972189;28;20054;-67
2022/01/19 08:31:52;;;;;;;10.10;3.78;;;;;;;2.51;40.84;99551.78;4978490;28;20520;-67
2022/01/19 08:34:50;;;;;;;10.63;3.97;;;;;;;1.90;42.47;99569.13;4994371;28;20099;-67
2022/01/19 08:37:19;;;;;;;9.52;3.58;;;;;;;2.36;41.87;99582.16;4988307;28;20104;-67
2022/01/19 08:40:05;;;;;;;9.85;3.35;;;;;;;3.42;39.74;99578.47;5002128;28;20377;-67
2022/01/19 08:42:36;;;;;;;9.35;3.80;;;;;;;5.08;36.85;99578.72;5003374;28;20048;-67
2022/01/19 08:45:07;;;;;;;10.25;4.00;;;;;;;6.16;34.64;99575.59;4971503;28;20379;-68
2022/01/19 08:47:35;;;;;;;10.85;3.60;;;;;;;6.00;35.48;99576.84;5018161;28;20440;-68
2022/01/19 08:50:10;;;;;;;10.82;3.63;;;;;;;7.29;33.76;99581.34;4990786;28;20060;-67
2022/01/19 08:52:47;;;;;;;11.93;3.35;;;;;;;7.25;34.09;99575.38;4992918;28;20045;-67
2022/01/19 08:55:25;;;;;;;9.20;3.47;;;;;;;7.06;33.05;99575.22;5001777;28;20334;-66
2022/01/19 08:57:51;;;;;;;10.15;3.40;;;;;;;6.91;33.63;99572.00;5001664;28;20081;-67
2022/01/19 09:00:18;;;;;;;9.88;3.17;;;;;;;7.09;33.41;99561.53;5019508;28;20061;-68
2022/01/19 09:02:44;;;;;;;10.13;3.70;;;;;;;8.01;31.94;99556.16;5015806;28;20080;-67
2022/01/19 09:05:10;;;;;;;8.85;3.97;;;;;;;8.82;31.49;99556.91;4984280;28;20175;-68
2022/01/19 09:07:36;;;;;;;11.05;3.67;;;;;;;6.71;33.07;99528.03;5002050;28;20041;-67
2022/01/19 09:10:03;;;;;;;11.52;4.30;;;;;;;6.94;32.63;99558.31;4990475;28;20044;-68
2022/01/19 09:12:29;;;;;;;10.93;3.85;;;;;;;5.18;34.78;99506.47;5015468;28;20191;-67
2022/01/19 09:14:55;;;;;;;10.48;3.92;;;;;;;5.44;35.57;99536.59;5003794;28;20128;-67
2022/01/19 09:17:21;;;;;;;12.32;4.50;;;;;;;4.21;36.73;99538.94;4984196;28;20052;-67
2022/01/19 09:19:47;;;;;;;12.77;4.47;;;;;;;5.50;35.16;99535.25;5001077;28;20042;-67
2022/01/19 09:22:13;;;;;;;10.32;3.90;;;;;;;4.81;35.58;99532.59;4985295;28;20586;-67
2022/01/19 09:24:40;;;;;;;11.60;4.25;;;;;;;4.35;36.36;99517.34;5001177;28;20091;-67
2022/01/19 09:27:10;;;;;;;12.65;5.30;;;;;;;3.67;37.40;99539.31;4993948;28;20060;-67
2022/01/19 09:29:38;;;;;;;10.65;4.47;;;;;;;3.02;38.75;99543.84;4972710;28;20042;-67
2022/01/19 09:32:11;;;;;;;12.77;5.25;;;;;;;2.09;40.76;99548.34;5005645;28;20040;-67
2022/01/19 09:34:40;;;;;;;11.65;4.63;;;;;;;3.47;39.34;99533.56;5002559;28;20052;-66
2022/01/19 09:37:06;;;;;;;13.27;5.07;;;;;;;2.33;40.25;99539.66;5002286;28;20053;-65
2022/01/19 09:39:32;;;;;;;14.50;4.75;;;;;;;1.86;41.10;99544.47;5014957;28;20136;-66
2022/01/19 09:41:58;;;;;;;11.45;3.85;;;;;;;3.63;38.24;99531.53;5007499;28;20132;-68
2022/01/19 09:44:27;;;;;;;10.52;4.03;;;;;;;4.89;35.84;99534.69;4989848;28;20075;-67
2022/01/19 09:46:54;;;;;;;11.50;3.88;;;;;;;5.37;36.00;99539.88;5010691;28;20034;-68
2022/01/19 09:49:20;;;;;;;8.32;3.53;;;;;;;4.54;36.13;99535.56;4993855;28;20064;-68
2022/01/19 09:51:51;;;;;;;10.80;3.95;;;;;;;3.03;38.11;99524.19;5028497;28;20060;-70
2022/01/19 09:54:23;;;;;;;10.32;3.92;;;;;;;3.46;38.06;99525.69;5014100;28;20049;-69
2022/01/19 09:56:48;;;;;;;10.00;3.53;;;;;;;4.15;37.09;99523.34;4997849;28;20472;-67
2022/01/19 09:59:15;;;;;;;10.07;3.55;;;;;;;4.80;36.26;99537.09;5011061;28;20063;-67
2022/01/19 10:01:52;;;;;;;8.98;3.67;;;;;;;3.39;38.93;99535.94;4994690;28;20037;-64
2022/01/19 10:04:20;;;;;;;9.23;4.15;;;;;;;3.71;38.13;99530.13;5000630;28;20421;-67
2022/01/19 10:06:49;;;;;;;12.82;4.50;;;;;;;2.13;40.35;99496.53;5015350;28;20045;-71
2022/01/19 10:09:29;;;;;;;11.15;4.60;;;;;;;2.66;40.09;99526.72;5002328;28;20057;-67
2022/01/19 10:17:15;;;;;;;11.70;4.68;;;;;;;0.13;45.36;99544.41;5009625;28;20056;-67
2022/01/19 10:19:53;;;;;;;12.38;4.32;;;;;;;-0.10;46.36;99532.44;4970690;28;20405;-68
2022/01/19 10:22:20;;;;;;;11.55;3.80;;;;;;;0.76;45.05;99550.50;4972544;28;20045;-68
2022/01/19 10:25:05;;;;;;;10.13;3.55;;;;;;;1.49;43.36;99559.28;5020018;28;20154;-68
2022/01/19 10:27:42;;;;;;;11.98;4.35;;;;;;;1.62;43.50;99549.59;4984422;28;20045;-68
2022/01/19 10:30:08;;;;;;;13.27;4.05;;;;;;;0.06;45.54;99521.78;5019954;28;20077;-67
2022/01/19 10:32:40;;;;;;;11.13;3.75;;;;;;;-0.93;49.07;99546.75;5022525;28;20458;-69
2022/01/19 10:35:24;;;;;;;12.77;4.40;;;;;;;-1.80;50.43;99544.13;5020177;28;20558;-67
2022/01/19 10:38:09;;;;;;;;;;;;;;;-1.22;48.80;99535.88;5000442;28;20702;-67
2022/01/19 10:40:36;;;;;;;13.10;3.90;;;;;;;-1.27;49.44;99519.34;5004380;28;19983;-67
2022/01/19 10:43:30;;;;;;;10.05;3.50;;;;;;;-2.15;51.73;99516.75;5021061;28;20093;-67
2022/01/19 10:46:00;;;;;;;10.63;3.30;;;;;;;-0.32;48.54;99500.06;5004405;28;20504;-67
2022/01/19 10:48:36;;;;;;;10.15;3.85;;;;;;;-0.64;47.89;99491.25;5042129;28;20041;-67
2022/01/19 10:51:10;;;;;;;11.90;4.13;;;;;;;0.12;46.35;99500.19;5022627;28;20460;-67
2022/01/19 10:53:36;;;;;;;10.48;3.92;;;;;;;1.03;44.81;99503.59;5017137;28;20068;-67
2022/01/19 10:56:05;;;;;;;10.48;3.35;;;;;;;1.60;42.37;99476.03;4970215;28;20045;-67
2022/01/19 10:58:32;;;;;;;16.77;5.50;;;;;;;1.24;43.78;99511.19;5017560;28;20511;-67
2022/01/19 11:00:58;;;;;;;16.80;6.13;;;;;;;1.49;43.29;99490.03;5020224;28;20136;-68
2022/01/19 11:03:27;;;;;;;15.68;6.10;;;;;;;0.93;43.33;99495.31;4974823;28;20041;-70
2022/01/19 11:06:00;;;;;;;13.25;5.43;;;;;;;1.77;43.26;99514.94;5042902;28;20136;-68
2022/01/19 11:08:29;;;;;;;13.15;5.78;;;;;;;1.97;42.82;99494.97;5011852;28;20037;-67
2022/01/19 11:10:56;;;;;;;12.80;5.32;;;;;;;0.16;45.82;99501.72;4997018;28;20067;-69
2022/01/19 11:13:30;;;;;;;13.27;3.95;;;;;;;-1.22;49.68;99509.34;5026119;28;20057;-67
2022/01/19 11:15:58;;;;;;;12.48;5.38;;;;;;;-2.20;52.24;99498.41;5015342;28;20041;-67
2022/01/19 11:18:29;;;;;;;12.15;5.05;;;;;;;-2.89;53.94;99487.59;4986639;28;20094;-67
2022/01/19 11:20:59;;;;;;;15.57;5.32;;;;;;;-3.07;55.84;99499.91;4997861;28;20045;-67
2022/01/19 11:24:00;;;;;;;15.05;5.82;;;;;;;-3.54;57.08;99504.66;5022840;28;20117;-67
2022/01/19 11:26:30;;;;;;;15.07;5.40;;;;;;;-3.80;58.37;99459.09;5020031;28;20128;-67
2022/01/19 11:29:12;;;;;;;13.75;4.43;;;;;;;-3.57;58.56;99510.06;5013847;28;20501;-67
2022/01/19 11:31:39;;;;;;;11.02;4.13;;;;;;;-3.44;58.19;99474.25;5042744;28;20060;-67
2022/01/19 11:34:05;;;;;;;14.02;4.40;;;;;;;-4.07;59.04;99431.22;4990972;28;20067;-67
2022/01/19 11:36:40;;;;;;;11.77;4.13;;;;;;;-3.81;60.33;99486.41;5021090;28;20362;-66
2022/01/19 11:39:20;;;;;;;13.95;4.32;;;;;;;-4.15;60.04;99468.50;5022403;28;20107;-67
2022/01/19 11:41:56;;;;;;;13.48;4.10;;;;;;;-4.21;60.95;99479.28;5022133;28;20055;-66
2022/01/19 11:44:28;;;;;;;12.00;3.55;;;;;;;-4.40;62.13;99471.28;5041733;28;20202;-68
2022/01/19 11:46:56;;;;;;;12.40;4.40;;;;;;;-4.52;62.25;99479.69;5010587;28;20527;-68
2022/01/19 11:49:54;;;;;;;12.57;3.58;;;;;;;-4.59;62.89;99475.59;5048323;28;20049;-67
2022/01/19 11:52:25;;;;;;;16.60;4.05;;;;;;;-4.90;63.96;99450.41;5013077;28;20095;-67
2022/01/19 11:54:52;;;;;;;11.80;3.78;;;;;;;-4.74;63.73;99483.16;5031148;28;20045;-66
2022/01/19 11:57:28;;;;;;;14.68;4.10;;;;;;;-4.95;64.32;99462.91;5014033;28;20096;-67
2022/01/19 11:59:55;;;;;;;11.45;3.45;;;;;;;-4.83;64.67;99472.97;5024933;28;20041;-67
2022/01/19 12:02:21;;;;;;;12.10;3.63;;;;;;;-4.97;64.85;99470.88;5034287;28;20045;-67
2022/01/19 12:04:50;;;;;;;13.02;4.30;;;;;;;-4.92;64.84;99468.06;4996996;28;20041;-67
2022/01/19 12:07:34;;;;;;;11.02;3.97;;;;;;;-5.01;65.24;99468.41;5023451;28;20049;-66
2022/01/19 12:10:00;;;;;;;10.85;3.90;;;;;;;-5.42;65.81;99437.41;5008139;28;20132;-67
2022/01/19 12:12:31;;;;;;;11.60;4.15;;;;;;;-5.62;66.85;99413.63;5025563;28;20144;-67
2022/01/19 12:14:57;;;;;;;10.60;3.50;;;;;;;-5.40;67.13;99461.09;5015498;28;20139;-67
2022/01/19 12:17:28;;;;;;;13.40;3.10;;;;;;;-5.35;66.69;99444.19;5022126;28;20071;-65
2022/01/19 12:19:56;;;;;;;11.52;3.65;;;;;;;-5.36;67.60;99442.47;5028955;28;20560;-67
2022/01/19 12:22:23;;;;;;;14.23;4.78;;;;;;;-5.47;67.63;99444.66;5031337;28;20068;-66
2022/01/19 12:24:59;;;;;;;11.70;4.20;;;;;;;-5.48;68.13;99453.47;5032895;28;20068;-66
2022/01/19 12:27:28;;;;;;;13.20;4.10;;;;;;;-5.64;68.21;99432.09;5031921;28;20049;-67
2022/01/19 12:30:11;;;;;;;11.52;3.65;;;;;;;-5.49;68.32;99450.88;5014498;28;20053;-66
2022/01/19 12:32:53;;;;;;;14.60;3.88;;;;;;;-5.70;69.13;99442.84;5032905;28;20148;-65
2022/01/19 12:35:35;;;;;;;12.18;3.85;;;;;;;-5.68;69.67;99451.53;4998353;28;20049;-66
2022/01/19 12:38:06;;;;;;;13.07;4.60;;;;;;;-6.01;69.53;99410.66;5014771;28;20048;-66
2022/01/19 12:40:40;;;;;;;11.05;4.63;;;;;;;-6.27;69.85;99385.25;5015671;28;20058;-65
2022/01/19 12:43:27;;;;;;;14.75;5.03;;;;;;;-5.94;70.63;99431.44;5014042;28;20041;-66
2022/01/19 12:45:53;;;;;;;18.60;5.47;;;;;;;-6.00;70.34;99430.78;4997372;28;20169;-66
2022/01/19 12:48:32;;;;;;;14.00;4.47;;;;;;;-6.08;69.82;99404.75;4966023;28;20129;-66
2022/01/19 12:50:58;;;;;;;13.88;4.90;;;;;;;-6.29;70.60;99377.41;4998441;28;20083;-65
2022/01/19 12:53:25;;;;;;;13.75;4.25;;;;;;;-6.09;71.07;99403.03;4998271;28;20128;-66
2022/01/19 12:55:57;;;;;;;13.15;4.40;;;;;;;-6.05;70.70;99422.22;4998528;28;20114;-66
2022/01/19 12:58:28;;;;;;;14.50;5.10;;;;;;;-5.86;70.15;99420.59;5032022;28;20506;-66
2022/01/19 13:00:55;;;;;;;;;;;;;;;-5.71;69.96;99435.00;4982108;28;20046;-66
2022/01/19 13:03:29;;;;;;;12.05;4.20;;;;;;;-6.09;70.52;99414.41;4997802;28;19966;-68
2022/01/19 13:06:02;;;;;;;12.32;4.13;;;;;;;-6.10;71.57;99425.88;5032316;28;20060;-65